createdAt,value
2023-04-25T00:00:28.105Z,99.90
2023-04-25T00:02:57.621Z,99.90
2023-04-25T00:05:26.220Z,99.90
2023-04-25T00:07:55.630Z,99.90
2023-04-25T00:10:23.897Z,99.90
2023-04-25T00:12:52.648Z,99.90
2023-04-25T00:15:20.751Z,99.90
2023-04-25T00:17:49.380Z,99.90
2023-04-25T00:20:17.536Z,99.90
2023-04-25T00:22:45.576Z,99.90
2023-04-25T00:25:15.185Z,99.90
2023-04-25T00:27:43.774Z,99.90
2023-04-25T00:30:13.454Z,99.90
2023-04-25T00:32:41.567Z,99.90
2023-04-25T00:35:11.003Z,99.90
2023-04-25T00:37:39.193Z,99.90
2023-04-25T00:40:08.834Z,99.90
2023-04-25T00:42:39.790Z,99.90
2023-04-25T00:45:09.339Z,99.90
2023-04-25T00:47:38.410Z,99.90
2023-04-25T00:50:08.153Z,99.90
2023-04-25T00:52:36.588Z,99.90
2023-04-25T00:55:04.903Z,99.90
2023-04-25T00:57:32.935Z,99.90
2023-04-25T01:00:02.822Z,99.90
2023-04-25T01:02:32.194Z,99.90
2023-04-25T01:05:02.275Z,99.90
2023-04-25T01:07:30.512Z,99.90
2023-04-25T01:09:58.647Z,99.90
2023-04-25T01:12:26.858Z,99.90
2023-04-25T01:14:54.912Z,99.90
2023-04-25T01:17:24.830Z,99.90
2023-04-25T01:19:52.897Z,99.90
2023-04-25T01:22:22.739Z,99.90
2023-04-25T01:24:50.878Z,99.90
2023-04-25T01:27:19.962Z,99.90
2023-04-25T01:29:48.521Z,99.90
2023-04-25T01:32:17.374Z,99.90
2023-04-25T01:34:45.537Z,99.90
2023-04-25T01:37:13.794Z,99.90
2023-04-25T01:39:43.266Z,99.90
2023-04-25T01:42:11.567Z,99.90
2023-04-25T01:44:39.626Z,99.90
2023-04-25T01:47:07.682Z,99.90
2023-04-25T01:49:35.849Z,99.90
2023-04-25T01:52:04.012Z,99.90
2023-04-25T01:54:32.732Z,99.90
2023-04-25T01:57:02.688Z,99.90
2023-04-25T01:59:31.349Z,99.90
2023-04-25T02:02:08.861Z,99.90
2023-04-25T02:04:38.006Z,99.90
2023-04-25T02:07:08.550Z,99.90
2023-04-25T02:09:48.680Z,99.90
2023-04-25T02:12:19.758Z,99.90
2023-04-25T02:15:11.666Z,99.90
2023-04-25T02:17:46.967Z,99.90
2023-04-25T02:20:16.784Z,99.90
2023-04-25T02:22:44.804Z,99.90
2023-04-25T02:25:14.070Z,99.90
2023-04-25T02:27:44.501Z,99.90
2023-04-25T02:30:13.062Z,99.90
2023-04-25T02:32:41.352Z,99.90
2023-04-25T02:35:11.258Z,99.90
2023-04-25T02:37:40.934Z,99.90
2023-04-25T02:40:10.230Z,99.90
2023-04-25T02:42:38.296Z,99.90
2023-04-25T02:45:08.813Z,99.90
2023-04-25T02:47:36.901Z,99.90
2023-04-25T02:50:05.645Z,99.90
2023-04-25T02:52:33.714Z,99.90
2023-04-25T02:55:11.798Z,99.90
2023-04-25T02:57:39.930Z,99.90
2023-04-25T03:00:12.627Z,99.90
2023-04-25T03:02:40.760Z,99.90
2023-04-25T03:05:09.850Z,99.90
2023-04-25T03:07:40.264Z,99.90
2023-04-25T03:10:09.677Z,99.90
2023-04-25T03:12:38.610Z,99.90
2023-04-25T03:15:09.146Z,99.90
2023-04-25T03:17:37.913Z,99.90
2023-04-25T03:20:09.122Z,99.90
2023-04-25T03:22:37.244Z,99.90
2023-04-25T03:25:06.190Z,99.90
2023-04-25T03:27:34.236Z,99.90
2023-04-25T03:30:02.246Z,99.90
2023-04-25T03:32:32.088Z,99.90
2023-04-25T03:35:00.152Z,99.90
2023-04-25T03:37:29.514Z,99.90
2023-04-25T03:39:57.626Z,99.90
2023-04-25T03:42:31.046Z,99.90
2023-04-25T03:44:59.121Z,99.90
2023-04-25T03:47:27.243Z,99.90
2023-04-25T03:49:57.322Z,99.90
2023-04-25T03:52:26.108Z,99.70
2023-04-25T03:54:54.673Z,99.90
2023-04-25T03:57:25.521Z,99.90
2023-04-25T03:59:55.664Z,99.80
2023-04-25T04:02:25.032Z,99.50
2023-04-25T04:04:57.151Z,99.30
2023-04-25T04:07:26.663Z,99.70
2023-04-25T04:09:57.912Z,99.70
2023-04-25T04:12:31.395Z,99.80
2023-04-25T04:15:00.012Z,99.80
2023-04-25T04:17:28.376Z,99.70
2023-04-25T04:19:56.948Z,99.60
2023-04-25T04:22:26.584Z,99.60
2023-04-25T04:24:58.612Z,99.70
2023-04-25T04:27:55.824Z,99.50
2023-04-25T04:30:31.951Z,99.70
2023-04-25T04:33:03.107Z,99.90
2023-04-25T04:35:31.336Z,99.40
2023-04-25T04:38:00.757Z,99.40
2023-04-25T04:40:33.309Z,99.60
2023-04-25T04:43:19.750Z,99.60
2023-04-25T04:45:53.596Z,99.70
2023-04-25T04:48:41.076Z,99.70
2023-04-25T04:51:32.742Z,99.20
2023-04-25T04:54:03.324Z,99.20
2023-04-25T04:56:49.956Z,99.10
2023-04-25T04:59:26.866Z,99.60
2023-04-25T05:02:24.423Z,99.20
2023-04-25T05:05:18.614Z,99.30
2023-04-25T05:08:12.049Z,99.20
2023-04-25T05:11:04.735Z,99.10
2023-04-25T05:13:55.404Z,98.60
2023-04-25T05:16:49.699Z,98.80
2023-04-25T05:19:41.649Z,99.10
2023-04-25T05:22:20.816Z,99.00
2023-04-25T05:25:17.804Z,98.30
2023-04-25T05:28:10.938Z,98.80
2023-04-25T05:30:45.664Z,99.00
2023-04-25T05:33:22.906Z,98.80
2023-04-25T05:35:51.074Z,98.70
2023-04-25T05:38:19.204Z,98.80
2023-04-25T05:41:08.249Z,98.60
2023-04-25T05:43:48.279Z,98.40
2023-04-25T05:46:42.358Z,98.20
2023-04-25T05:49:42.575Z,98.10
2023-04-25T05:52:22.188Z,98.30
2023-04-25T05:55:03.884Z,98.00
2023-04-25T05:57:33.148Z,97.90
2023-04-25T06:00:04.145Z,98.70
2023-04-25T06:02:45.828Z,98.60
2023-04-25T06:05:16.321Z,98.30
2023-04-25T06:07:44.713Z,98.10
2023-04-25T06:10:12.747Z,97.80
2023-04-25T06:12:40.771Z,97.60
2023-04-25T06:15:24.572Z,98.00
2023-04-25T06:17:55.934Z,97.90
2023-04-25T06:20:25.509Z,97.80
2023-04-25T06:22:55.313Z,97.90
2023-04-25T06:25:30.312Z,97.60
2023-04-25T06:27:58.391Z,97.50
2023-04-25T06:30:27.931Z,97.60
2023-04-25T06:33:01.392Z,97.90
2023-04-25T06:35:30.712Z,97.80
2023-04-25T06:37:58.795Z,97.60
2023-04-25T06:40:27.820Z,97.50
2023-04-25T06:42:55.998Z,97.90
2023-04-25T06:45:53.999Z,97.50
2023-04-25T06:48:23.721Z,97.50
2023-04-25T06:50:52.593Z,97.80
2023-04-25T06:53:21.242Z,97.80
2023-04-25T06:55:55.217Z,97.80
2023-04-25T06:58:24.847Z,97.70
2023-04-25T07:01:08.249Z,97.70
2023-04-25T07:03:38.412Z,97.60
2023-04-25T07:06:11.075Z,97.60
2023-04-25T07:08:39.172Z,97.70
2023-04-25T07:11:07.352Z,97.50
2023-04-25T07:13:35.609Z,97.40
2023-04-25T07:16:04.132Z,97.60
2023-04-25T07:18:34.772Z,97.40
2023-04-25T07:21:03.606Z,97.60
2023-04-25T07:23:33.470Z,97.60
2023-04-25T07:26:04.270Z,97.50
2023-04-25T07:28:32.468Z,97.30
2023-04-25T07:31:00.493Z,96.90
2023-04-25T07:33:28.872Z,97.10
2023-04-25T07:35:58.816Z,97.10
2023-04-25T07:38:26.897Z,97.50
2023-04-25T07:40:54.947Z,97.60
2023-04-25T07:43:23.036Z,97.10
2023-04-25T07:45:58.049Z,97.10
2023-04-25T07:48:27.848Z,97.00
2023-04-25T07:50:55.960Z,96.90
2023-04-25T07:53:25.395Z,97.10
2023-04-25T07:55:58.115Z,96.90
2023-04-25T07:58:26.262Z,96.90
2023-04-25T08:00:58.693Z,96.90
2023-04-25T08:03:50.852Z,96.70
2023-04-25T08:06:37.973Z,96.80
2023-04-25T08:09:12.334Z,97.00
2023-04-25T08:11:42.725Z,97.00
2023-04-25T08:14:13.538Z,97.10
2023-04-25T08:16:43.097Z,96.60
2023-04-25T08:19:11.898Z,97.00
2023-04-25T08:21:40.255Z,96.70
2023-04-25T08:24:14.135Z,96.70
2023-04-25T08:26:43.058Z,96.50
2023-04-25T08:29:15.838Z,96.80
2023-04-25T08:31:45.099Z,96.70
2023-04-25T08:34:14.724Z,96.40
2023-04-25T08:36:45.750Z,96.60
2023-04-25T08:39:41.542Z,96.20
2023-04-25T08:42:35.098Z,96.20
2023-04-25T08:45:07.137Z,96.30
2023-04-25T08:47:40.626Z,96.30
2023-04-25T08:50:09.192Z,96.10
2023-04-25T08:52:41.713Z,96.30
2023-04-25T08:55:15.134Z,96.10
2023-04-25T08:57:44.760Z,96.00
2023-04-25T09:00:14.262Z,96.00
2023-04-25T09:02:45.558Z,96.00
2023-04-25T09:05:15.711Z,95.90
2023-04-25T09:07:44.775Z,95.70
2023-04-25T09:10:14.167Z,95.40
2023-04-25T09:12:43.221Z,95.70
2023-04-25T09:15:19.701Z,95.80
2023-04-25T09:18:11.117Z,95.60
2023-04-25T09:21:00.859Z,95.70
2023-04-25T09:23:30.863Z,95.50
2023-04-25T09:26:00.696Z,95.20
2023-04-25T09:28:30.902Z,95.30
2023-04-25T09:31:00.752Z,94.80
2023-04-25T09:33:37.243Z,94.50
2023-04-25T09:36:09.058Z,94.80
2023-04-25T09:38:57.238Z,94.80
2023-04-25T09:41:31.165Z,94.70
2023-04-25T09:44:03.305Z,94.60
2023-04-25T09:46:38.445Z,94.90
2023-04-25T09:49:17.051Z,94.90
2023-04-25T09:51:57.870Z,94.80
2023-04-25T09:54:28.938Z,94.20
2023-04-25T09:57:20.864Z,94.30
2023-04-25T09:59:51.570Z,94.40
2023-04-25T10:02:21.311Z,94.20
2023-04-25T10:04:55.439Z,94.10
2023-04-25T10:07:34.056Z,94.40
2023-04-25T10:10:04.556Z,94.70
2023-04-25T10:12:35.648Z,95.10
2023-04-25T10:15:05.883Z,95.30
2023-04-25T10:17:35.019Z,95.30
2023-04-25T10:20:04.980Z,95.10
2023-04-25T10:22:37.692Z,95.40
2023-04-25T10:25:07.220Z,95.40
2023-04-25T10:27:37.990Z,95.50
2023-04-25T10:30:11.150Z,95.50
2023-04-25T10:32:39.561Z,95.40
2023-04-25T10:35:16.318Z,95.70
2023-04-25T10:37:59.628Z,96.00
2023-04-25T10:40:28.376Z,95.50
2023-04-25T10:43:18.040Z,95.40
2023-04-25T10:45:55.312Z,95.30
2023-04-25T10:48:29.754Z,95.30
2023-04-25T10:51:10.389Z,95.00
2023-04-25T10:53:38.490Z,94.80
2023-04-25T10:56:14.395Z,94.70
2023-04-25T10:58:48.223Z,94.60
2023-04-25T11:01:23.717Z,94.30
2023-04-25T11:03:59.278Z,94.30
2023-04-25T11:06:33.839Z,93.60
2023-04-25T11:09:04.042Z,93.70
2023-04-25T11:11:32.195Z,92.90
2023-04-25T11:14:02.081Z,92.80
2023-04-25T11:16:32.029Z,92.70
2023-04-25T11:19:00.625Z,92.50
2023-04-25T11:21:28.812Z,92.80
2023-04-25T11:23:58.650Z,92.80
2023-04-25T11:26:27.348Z,92.60
2023-04-25T11:29:01.516Z,92.10
2023-04-25T11:31:29.610Z,92.00
2023-04-25T11:33:59.494Z,91.50
2023-04-25T11:36:28.442Z,91.70
2023-04-25T11:38:56.582Z,91.90
2023-04-25T11:41:24.843Z,91.60
2023-04-25T11:43:55.463Z,91.80
2023-04-25T11:46:25.419Z,91.60
2023-04-25T11:48:53.875Z,91.70
2023-04-25T11:51:22.074Z,91.40
2023-04-25T11:53:51.159Z,91.50
2023-04-25T11:56:19.255Z,91.50
2023-04-25T11:58:57.289Z,91.40
2023-04-25T12:01:34.553Z,91.50
2023-04-25T12:04:14.013Z,91.40
2023-04-25T12:06:43.829Z,91.60
2023-04-25T12:09:14.115Z,91.60
2023-04-25T12:11:45.727Z,91.60
2023-04-25T12:14:14.327Z,91.60
2023-04-25T12:16:44.578Z,91.80
2023-04-25T12:19:16.267Z,91.80
2023-04-25T12:24:24.469Z,91.50
2023-04-25T12:26:54.557Z,91.70
2023-04-25T12:29:24.938Z,91.70
2023-04-25T12:31:57.911Z,91.90
2023-04-25T12:34:26.846Z,92.00
2023-04-25T12:36:55.460Z,91.80
2023-04-25T12:39:24.811Z,91.50
2023-04-25T12:41:54.886Z,91.70
2023-04-25T12:44:23.099Z,91.50
2023-04-25T12:46:51.242Z,91.80
2023-04-25T12:49:20.667Z,91.10
2023-04-25T12:51:48.960Z,90.50
2023-04-25T12:54:17.136Z,91.10
2023-04-25T12:56:45.194Z,91.10
2023-04-25T12:59:13.480Z,91.00
2023-04-25T13:01:41.848Z,91.20
2023-04-25T13:04:10.003Z,90.90
2023-04-25T13:06:39.657Z,91.30
2023-04-25T13:09:08.136Z,91.10
2023-04-25T13:11:36.425Z,90.30
2023-04-25T13:14:04.631Z,90.40
2023-04-25T13:16:32.709Z,90.80
2023-04-25T13:19:00.849Z,90.40
2023-04-25T13:21:28.945Z,90.10
2023-04-25T13:23:58.614Z,90.10
2023-04-25T13:26:26.770Z,89.70
2023-04-25T13:28:54.800Z,89.70
2023-04-25T13:31:22.882Z,90.00
2023-04-25T13:33:51.094Z,89.80
2023-04-25T13:36:19.334Z,89.60
2023-04-25T13:38:48.781Z,89.30
2023-04-25T13:41:19.823Z,89.80
2023-04-25T13:43:49.840Z,89.00
2023-04-25T13:46:35.321Z,88.50
2023-04-25T13:49:12.713Z,89.50
2023-04-25T13:51:41.756Z,88.50
2023-04-25T13:54:09.851Z,88.20
2023-04-25T13:56:39.304Z,87.40
2023-04-25T13:59:07.309Z,86.90
2023-04-25T14:01:36.678Z,86.90
2023-04-25T14:04:06.194Z,86.30
2023-04-25T14:06:34.523Z,86.10
2023-04-25T14:09:02.675Z,85.90
2023-04-25T14:11:30.772Z,86.50
2023-04-25T14:14:00.149Z,86.50
2023-04-25T14:16:28.263Z,86.50
2023-04-25T14:18:56.440Z,86.70
2023-04-25T14:21:24.510Z,86.10
2023-04-25T14:23:52.824Z,86.70
2023-04-25T14:26:21.215Z,86.20
2023-04-25T14:28:49.210Z,85.40
2023-04-25T14:31:18.611Z,85.70
2023-04-25T14:33:46.947Z,85.60
2023-04-25T14:36:15.235Z,85.20
2023-04-25T14:38:43.231Z,86.00
2023-04-25T14:41:11.634Z,86.50
2023-04-25T14:43:40.915Z,86.70
2023-04-25T14:46:09.221Z,86.50
2023-04-25T14:48:38.888Z,87.00
2023-04-25T14:51:07.233Z,85.90
2023-04-25T14:53:35.298Z,85.10
2023-04-25T14:56:03.318Z,85.30
2023-04-25T14:58:31.786Z,84.30
2023-04-25T15:01:00.184Z,84.80
2023-04-25T15:03:28.492Z,84.40
2023-04-25T15:05:57.995Z,84.70
2023-04-25T15:08:25.990Z,85.40
2023-04-25T15:10:54.377Z,84.60
2023-04-25T15:13:22.637Z,84.50
2023-04-25T15:15:52.395Z,84.50
2023-04-25T15:18:22.983Z,84.50
2023-04-25T15:20:51.946Z,84.90
2023-04-25T15:23:22.981Z,85.50
2023-04-25T15:25:52.552Z,85.30
2023-04-25T15:28:22.268Z,84.80
2023-04-25T15:30:51.421Z,85.20
2023-04-25T15:33:19.477Z,84.70
2023-04-25T15:35:47.597Z,84.60
2023-04-25T15:38:15.671Z,84.80
2023-04-25T15:40:45.144Z,84.00
2023-04-25T15:43:16.091Z,83.40
2023-04-25T15:45:45.487Z,83.90
2023-04-25T15:48:13.749Z,83.70
2023-04-25T15:50:42.490Z,83.30
2023-04-25T15:53:11.108Z,83.10
2023-04-25T15:55:39.251Z,83.40
2023-04-25T15:58:10.074Z,84.00
2023-04-25T16:00:40.586Z,83.80
2023-04-25T16:03:09.932Z,83.70
2023-04-25T16:05:38.553Z,83.90
2023-04-25T16:08:06.594Z,83.70
2023-04-25T16:10:34.756Z,83.40
2023-04-25T16:13:03.744Z,83.60
2023-04-25T16:15:35.422Z,83.60
2023-04-25T16:18:04.029Z,83.60
2023-04-25T16:20:32.407Z,82.90
2023-04-25T16:23:01.277Z,83.60
2023-04-25T16:25:29.618Z,83.20
2023-04-25T16:27:57.683Z,83.20
2023-04-25T16:30:26.271Z,83.00
2023-04-25T16:32:57.116Z,82.80
2023-04-25T16:35:25.709Z,83.40
2023-04-25T16:37:53.755Z,83.20
2023-04-25T16:40:21.803Z,83.60
2023-04-25T16:42:49.867Z,83.70
2023-04-25T16:45:20.149Z,84.10
2023-04-25T16:47:48.334Z,83.80
2023-04-25T16:50:17.941Z,83.70
2023-04-25T16:52:45.970Z,84.10
2023-04-25T16:55:13.996Z,84.40
2023-04-25T16:57:42.022Z,84.50
2023-04-25T17:00:13.338Z,84.70
2023-04-25T17:02:42.786Z,85.40
2023-04-25T17:05:11.888Z,84.90
2023-04-25T17:07:41.245Z,84.50
2023-04-25T17:10:10.164Z,84.20
2023-04-25T17:12:38.219Z,84.00
2023-04-25T17:15:07.456Z,83.80
2023-04-25T17:17:35.617Z,83.30
2023-04-25T17:20:06.782Z,83.20
2023-04-25T17:22:37.497Z,84.00
2023-04-25T17:25:09.906Z,83.50
2023-04-25T17:27:38.125Z,82.40
2023-04-25T17:30:09.286Z,81.70
2023-04-25T17:32:37.860Z,82.10
2023-04-25T17:35:06.882Z,81.20
2023-04-25T17:37:35.148Z,80.80
2023-04-25T17:40:04.853Z,81.20
2023-04-25T17:42:34.320Z,81.30
2023-04-25T17:45:02.286Z,81.10
2023-04-25T17:47:30.387Z,81.20
2023-04-25T17:49:58.905Z,81.40
2023-04-25T17:52:27.323Z,81.60
2023-04-25T17:54:57.556Z,81.60
2023-04-25T17:57:26.370Z,81.80
2023-04-25T17:59:57.724Z,81.30
2023-04-25T18:02:27.068Z,81.40
2023-04-25T18:04:55.511Z,81.50
2023-04-25T18:07:23.549Z,81.70
2023-04-25T18:09:51.562Z,81.90
2023-04-25T18:12:19.594Z,82.00
2023-04-25T18:14:47.610Z,82.50
2023-04-25T18:17:17.203Z,82.60
2023-04-25T18:19:45.245Z,82.10
2023-04-25T18:22:13.304Z,82.20
2023-04-25T18:24:41.355Z,82.20
2023-04-25T18:27:10.111Z,82.30
2023-04-25T18:29:38.385Z,82.30
2023-04-25T18:32:06.741Z,81.50
2023-04-25T18:34:36.232Z,81.00
2023-04-25T18:37:04.301Z,81.10
2023-04-25T18:39:32.376Z,80.90
2023-04-25T18:42:04.714Z,81.10
2023-04-25T18:44:39.297Z,80.60
2023-04-25T18:47:07.699Z,80.40
2023-04-25T18:49:38.528Z,80.60
2023-04-25T18:52:08.489Z,80.70
2023-04-25T18:54:36.965Z,80.80
2023-04-25T18:57:06.139Z,80.50
2023-04-25T18:59:34.421Z,80.60
2023-04-25T19:02:02.969Z,80.40
2023-04-25T19:04:31.254Z,81.00
2023-04-25T19:07:00.891Z,80.80
2023-04-25T19:09:28.953Z,81.10
2023-04-25T19:11:57.720Z,81.20
2023-04-25T19:14:26.102Z,80.80
2023-04-25T19:16:54.325Z,80.60
2023-04-25T19:19:22.430Z,80.60
2023-04-25T19:21:52.458Z,80.30
2023-04-25T19:24:22.089Z,80.70
2023-04-25T19:26:50.113Z,80.40
2023-04-25T19:29:18.213Z,80.60
2023-04-25T19:31:46.497Z,80.30
2023-04-25T19:34:14.583Z,80.60
2023-04-25T19:36:44.012Z,80.40
2023-04-25T19:39:12.993Z,80.30
2023-04-25T19:41:42.455Z,80.20
2023-04-25T19:44:10.919Z,80.40
2023-04-25T19:46:39.484Z,80.40
2023-04-25T19:49:08.036Z,80.30
2023-04-25T19:51:36.917Z,80.50
2023-04-25T19:54:05.320Z,80.70
2023-04-25T19:56:33.757Z,80.70
2023-04-25T19:59:03.216Z,80.70
2023-04-25T20:01:31.457Z,80.80
2023-04-25T20:03:59.549Z,80.80
2023-04-25T20:06:28.862Z,80.50
2023-04-25T20:08:57.021Z,80.50
2023-04-25T20:11:28.462Z,80.80
2023-04-25T20:13:57.353Z,80.90
2023-04-25T20:16:26.803Z,81.20
2023-04-25T20:18:55.281Z,81.20
2023-04-25T20:21:23.848Z,82.30
2023-04-25T20:23:52.010Z,81.30
2023-04-25T20:26:22.055Z,81.30
2023-04-25T20:28:51.104Z,81.50
2023-04-25T20:31:19.575Z,81.70
2023-04-25T20:33:49.092Z,81.90
2023-04-25T20:36:17.145Z,82.00
2023-04-25T20:38:45.528Z,81.80
2023-04-25T20:41:13.778Z,82.00
2023-04-25T20:43:42.201Z,81.90
2023-04-25T20:46:10.344Z,82.20
2023-04-25T20:48:38.441Z,83.00
2023-04-25T20:51:08.667Z,82.30
2023-04-25T20:53:36.666Z,82.70
2023-04-25T20:56:06.329Z,82.50
2023-04-25T20:58:34.494Z,83.00
2023-04-25T21:01:04.146Z,82.80
2023-04-25T21:03:32.369Z,83.10
2023-04-25T21:06:00.701Z,83.20
2023-04-25T21:08:30.056Z,83.20
2023-04-25T21:10:58.111Z,83.30
2023-04-25T21:13:27.259Z,83.30
2023-04-25T21:15:55.352Z,83.40
2023-04-25T21:18:23.435Z,83.40
2023-04-25T21:20:51.513Z,83.40
2023-04-25T21:23:19.606Z,83.50
2023-04-25T21:25:51.553Z,83.50
2023-04-25T21:28:19.584Z,83.80
2023-04-25T21:30:47.854Z,83.70
2023-04-25T21:33:16.252Z,83.70
2023-04-25T21:35:44.298Z,83.80
2023-04-25T21:38:12.353Z,84.20
2023-04-25T21:40:41.138Z,84.00
2023-04-25T21:43:10.544Z,84.00
2023-04-25T21:45:56.960Z,84.20
2023-04-25T21:48:26.648Z,84.10
2023-04-25T21:50:55.665Z,84.10
2023-04-25T21:53:24.857Z,84.30
2023-04-25T21:55:52.966Z,84.60
2023-04-25T21:58:22.344Z,84.50
2023-04-25T22:00:50.616Z,84.60
2023-04-25T22:03:20.307Z,84.80
2023-04-25T22:05:49.130Z,84.80
2023-04-25T22:08:17.430Z,84.80
2023-04-25T22:10:45.579Z,85.10
2023-04-25T22:13:13.603Z,84.90
2023-04-25T22:15:42.997Z,85.10
2023-04-25T22:18:11.164Z,85.40
2023-04-25T22:20:39.941Z,85.40
2023-04-25T22:23:08.733Z,85.50
2023-04-25T22:25:37.088Z,85.50
2023-04-25T22:28:05.265Z,85.70
2023-04-25T22:30:34.930Z,85.60
2023-04-25T22:33:04.399Z,85.70
2023-04-25T22:35:32.676Z,85.50
2023-04-25T22:38:00.703Z,85.50
2023-04-25T22:40:28.737Z,85.80
2023-04-25T22:42:57.740Z,85.80
2023-04-25T22:45:25.785Z,85.90
2023-04-25T22:47:54.264Z,86.00
2023-04-25T22:50:23.912Z,86.90
2023-04-25T22:52:51.921Z,86.40
2023-04-25T22:55:19.967Z,85.90
2023-04-25T22:57:48.225Z,86.30
2023-04-25T23:00:19.569Z,86.50
2023-04-25T23:02:47.866Z,86.10
2023-04-25T23:05:16.549Z,86.20
2023-04-25T23:07:46.073Z,86.30
2023-04-25T23:10:14.360Z,86.60
2023-04-25T23:12:42.774Z,86.50
2023-04-25T23:15:13.097Z,86.90
2023-04-25T23:17:41.930Z,86.40
2023-04-25T23:20:11.974Z,86.90
2023-04-25T23:22:40.285Z,86.80
2023-04-25T23:25:11.757Z,86.50
2023-04-25T23:27:39.781Z,87.00
2023-04-25T23:30:09.071Z,86.50
2023-04-25T23:32:37.389Z,86.40
2023-04-25T23:35:06.702Z,86.20
2023-04-25T23:37:35.045Z,86.80
2023-04-25T23:40:08.176Z,87.50
2023-04-25T23:42:38.052Z,88.80
2023-04-25T23:45:07.700Z,87.40
2023-04-25T23:47:36.348Z,88.00
2023-04-25T23:50:04.754Z,87.70
2023-04-25T23:52:32.815Z,87.40
2023-04-25T23:55:01.018Z,88.10
2023-04-25T23:57:29.161Z,88.80
2023-04-25T23:59:58.695Z,88.90
